Time;durP1;ratioP1;P1;durP2;ratioP2;P2;SDS_P1;SDS_P2;PMS_P1;PMS_P2;Temp;Humidity;BMP_temperature;BMP_pressure;BME280_temperature;BME280_humidity;BME280_pressure;Samples;Min_cycle;Max_cycle;Signal;HPM_P1;HPM_P2
2022/06/15 00:02:01;;;;;;;3.87;2.10;;;;;;;;;;5005315;28;20565;-76
2022/06/15 00:04:29;;;;;;;2.13;1.93;;;;;;;;;;5028046;28;20175;-76
2022/06/15 00:06:55;;;;;;;2.27;1.80;;;;;;;;;;4997822;28;20192;-76
2022/06/15 00:09:21;;;;;;;2.93;1.80;;;;;;;;;;5015574;28;20704;-76
2022/06/15 00:11:47;;;;;;;2.80;1.83;;;;;;;;;;4995977;28;20661;-76
2022/06/15 00:14:16;;;;;;;2.77;2.00;;;;;;;;;;4988055;28;20187;-76
2022/06/15 00:16:42;;;;;;;2.87;1.93;;;;;;;;;;5028188;28;20608;-76
2022/06/15 00:19:09;;;;;;;2.33;1.73;;;;;;;;;;5001382;28;20616;-76
2022/06/15 00:21:35;;;;;;;2.30;1.90;;;;;;;;;;5003799;28;20207;-76
2022/06/15 00:24:02;;;;;;;2.20;1.80;;;;;;;;;;4993464;28;20989;-76
2022/06/15 00:26:28;;;;;;;3.10;2.20;;;;;;;;;;5004650;28;20184;-76
2022/06/15 00:28:54;;;;;;;2.80;2.10;;;;;;;;;;5013701;28;20298;-75
2022/06/15 00:31:21;;;;;;;3.30;2.20;;;;;;;;;;5006750;28;20199;-76
2022/06/15 00:33:47;;;;;;;3.33;2.20;;;;;;;;;;4989964;28;20183;-75
2022/06/15 00:36:15;;;;;;;3.83;2.00;;;;;;;;;;5011167;28;20211;-75
2022/06/15 00:38:52;;;;;;;2.40;1.93;;;;;;;;;;4995287;28;20769;-76
2022/06/15 00:41:24;;;;;;;3.93;2.07;;;;;;;;;;5013444;28;20207;-76
2022/06/15 00:44:01;;;;;;;2.60;2.10;;;;;;;;;;5012999;28;20187;-76
2022/06/15 00:46:39;;;;;;;4.90;2.00;;;;;;;;;;4997355;28;20649;-76
2022/06/15 00:49:13;;;;;;;3.37;2.20;;;;;;;;;;4991221;28;20203;-76
2022/06/15 00:51:40;;;;;;;3.20;2.10;;;;;;;;;;5015116;28;20315;-76
2022/06/15 00:54:07;;;;;;;2.90;1.90;;;;;;;;;;4986640;28;20267;-76
2022/06/15 00:56:35;;;;;;;2.20;1.93;;;;;;;;;;4998315;28;20204;-77
2022/06/15 00:59:15;;;;;;;2.77;2.27;;;;;;;;;;4998537;28;20818;-76
2022/06/15 01:01:42;;;;;;;4.13;1.80;;;;;;;;;;5011648;28;21002;-76
2022/06/15 01:04:09;;;;;;;2.73;2.10;;;;;;;;;;5002421;28;20716;-75
2022/06/15 01:06:35;;;;;;;3.83;2.37;;;;;;;;;;5000977;28;20248;-75
2022/06/15 01:09:05;;;;;;;2.43;2.20;;;;;;;;;;5002474;28;20223;-76
2022/06/15 01:11:31;;;;;;;2.90;2.13;;;;;;;;;;5016142;28;20204;-76
2022/06/15 01:14:07;;;;;;;3.57;2.30;;;;;;;;;;5010648;28;20223;-76
2022/06/15 01:16:39;;;;;;;2.33;2.13;;;;;;;;;;5016469;28;20241;-76
2022/06/15 01:19:24;;;;;;;3.87;2.40;;;;;;;;;;5006715;28;20215;-76
2022/06/15 01:22:09;;;;;;;2.90;2.57;;;;;;;;;;4989989;28;20201;-76
2022/06/15 01:24:52;;;;;;;3.00;2.00;;;;;;;;;;5002701;28;20202;-76
2022/06/15 01:27:30;;;;;;;3.20;2.70;;;;;;;;;;5010816;28;20700;-76
2022/06/15 01:30:06;;;;;;;3.77;2.20;;;;;;;;;;5011525;28;20544;-76
2022/06/15 01:32:36;;;;;;;2.47;2.23;;;;;;;;;;4986522;28;20238;-76
2022/06/15 01:35:02;;;;;;;2.40;2.17;;;;;;;;;;5000182;28;20559;-76
2022/06/15 01:37:42;;;;;;;2.97;2.20;;;;;;;;;;4995879;28;20190;-76
2022/06/15 01:40:19;;;;;;;2.50;2.13;;;;;;;;;;5009586;28;20191;-76
2022/06/15 01:42:58;;;;;;;2.93;2.20;;;;;;;;;;4995977;28;20265;-76
2022/06/15 01:45:27;;;;;;;2.97;1.93;;;;;;;;;;4993879;28;20284;-76
2022/06/15 01:47:56;;;;;;;3.70;2.30;;;;;;;;;;5001372;28;20634;-76
2022/06/15 01:50:25;;;;;;;3.03;2.20;;;;;;;;;;4994803;28;20275;-76
2022/06/15 01:53:01;;;;;;;3.20;2.10;;;;;;;;;;4996397;28;20180;-76
2022/06/15 01:55:35;;;;;;;4.33;2.13;;;;;;;;;;5012900;28;20183;-76
2022/06/15 01:58:05;;;;;;;2.40;2.20;;;;;;;;;;4993699;28;20333;-76
2022/06/15 02:00:32;;;;;;;5.07;2.20;;;;;;;;;;4996559;28;20267;-76
2022/06/15 02:03:09;;;;;;;2.30;2.03;;;;;;;;;;4998029;28;20587;-76
2022/06/15 02:05:41;;;;;;;2.77;2.00;;;;;;;;;;5005665;28;20194;-76
2022/06/15 02:08:11;;;;;;;2.30;1.90;;;;;;;;;;5006868;28;20211;-76
2022/06/15 02:10:59;;;;;;;2.30;2.10;;;;;;;;;;5002247;28;20258;-76
2022/06/15 02:13:33;;;;;;;3.47;2.20;;;;;;;;;;4997408;28;20645;-74
2022/06/15 02:16:03;;;;;;;3.30;2.00;;;;;;;;;;5020299;28;20589;-76
2022/06/15 02:18:31;;;;;;;2.67;2.13;;;;;;;;;;4994770;28;20187;-76
2022/06/15 02:20:59;;;;;;;2.23;1.93;;;;;;;;;;5001910;28;20723;-75
2022/06/15 02:23:28;;;;;;;3.83;2.20;;;;;;;;;;5014607;28;20187;-76
2022/06/15 02:25:56;;;;;;;3.33;2.33;;;;;;;;;;4979648;28;20199;-76
2022/06/15 02:28:28;;;;;;;3.30;2.13;;;;;;;;;;4998699;28;20203;-76
2022/06/15 02:30:56;;;;;;;2.40;2.20;;;;;;;;;;5000671;28;20203;-75
2022/06/15 02:33:30;;;;;;;2.70;2.00;;;;;;;;;;5013262;28;20207;-75
2022/06/15 02:35:59;;;;;;;2.57;2.30;;;;;;;;;;5004408;28;20182;-75
2022/06/15 02:38:27;;;;;;;4.10;2.77;;;;;;;;;;4991179;28;20252;-76
2022/06/15 02:40:53;;;;;;;4.30;2.87;;;;;;;;;;5000346;28;20250;-76
2022/06/15 02:43:24;;;;;;;3.57;2.80;;;;;;;;;;4993502;28;20250;-76
2022/06/15 02:45:51;;;;;;;3.10;2.77;;;;;;;;;;5008402;28;20187;-76
2022/06/15 02:48:22;;;;;;;3.47;2.80;;;;;;;;;;5012576;28;20287;-76
2022/06/15 02:50:54;;;;;;;4.80;2.80;;;;;;;;;;4985208;28;20210;-76
2022/06/15 02:53:23;;;;;;;3.27;2.87;;;;;;;;;;4997957;28;20365;-76
2022/06/15 02:55:51;;;;;;;4.03;2.43;;;;;;;;;;5005970;28;20204;-76
2022/06/15 02:58:24;;;;;;;4.50;2.90;;;;;;;;;;4999285;28;20179;-76
2022/06/15 03:00:52;;;;;;;2.80;2.60;;;;;;;;;;4995082;28;20202;-76
2022/06/15 03:03:22;;;;;;;3.57;3.00;;;;;;;;;;4979895;28;20192;-76
2022/06/15 03:05:52;;;;;;;5.20;2.90;;;;;;;;;;4990125;28;20187;-76
2022/06/15 03:08:20;;;;;;;4.53;2.90;;;;;;;;;;5003068;28;20211;-76
2022/06/15 03:10:52;;;;;;;3.57;3.07;;;;;;;;;;4998641;28;20252;-76
2022/06/15 03:13:22;;;;;;;3.80;2.70;;;;;;;;;;5012270;28;20534;-76
2022/06/15 03:15:49;;;;;;;3.50;2.53;;;;;;;;;;5006959;28;20191;-76
2022/06/15 03:18:15;;;;;;;4.87;3.17;;;;;;;;;;5000621;28;20194;-76
2022/06/15 03:20:42;;;;;;;3.77;2.83;;;;;;;;;;5016709;28;20326;-76
2022/06/15 03:23:09;;;;;;;4.63;2.93;;;;;;;;;;5019960;28;20219;-76
2022/06/15 03:25:37;;;;;;;4.10;2.60;;;;;;;;;;5016945;28;20246;-76
2022/06/15 03:28:05;;;;;;;6.80;2.90;;;;;;;;;;5018737;28;20715;-76
2022/06/15 03:30:33;;;;;;;4.23;2.70;;;;;;;;;;5015450;28;20195;-76
2022/06/15 03:33:05;;;;;;;3.63;2.63;;;;;;;;;;4986388;28;20269;-76
2022/06/15 03:35:35;;;;;;;4.13;3.00;;;;;;;;;;5014453;28;20180;-75
2022/06/15 03:38:10;;;;;;;6.33;3.00;;;;;;;;;;4995787;28;20198;-76
2022/06/15 03:40:40;;;;;;;3.00;2.70;;;;;;;;;;4997509;28;20190;-76
2022/06/15 03:43:07;;;;;;;5.37;3.10;;;;;;;;;;5016349;28;20238;-76
2022/06/15 03:45:34;;;;;;;3.43;2.97;;;;;;;;;;4999004;28;20543;-76
2022/06/15 03:48:01;;;;;;;3.73;2.60;;;;;;;;;;5001474;28;20215;-76
2022/06/15 03:50:31;;;;;;;4.10;2.90;;;;;;;;;;5014896;28;20210;-76
2022/06/15 03:53:01;;;;;;;4.77;3.10;;;;;;;;;;5017188;28;20187;-76
2022/06/15 03:55:28;;;;;;;3.43;2.90;;;;;;;;;;4998184;28;20210;-76
2022/06/15 03:57:55;;;;;;;4.57;3.00;;;;;;;;;;5000595;28;20199;-74
2022/06/15 04:00:22;;;;;;;3.60;2.50;;;;;;;;;;5014254;28;20657;-75
2022/06/15 04:02:55;;;;;;;3.60;3.00;;;;;;;;;;5002114;28;20252;-76
2022/06/15 04:05:35;;;;;;;3.80;2.70;;;;;;;;;;5005493;28;20183;-78
2022/06/15 04:10:50;;;;;;;3.23;2.93;;;;;;;;;;5010101;28;20211;-75
2022/06/15 04:13:20;;;;;;;4.47;3.07;;;;;;;;;;5018904;28;20187;-78
2022/06/15 04:15:47;;;;;;;6.30;2.80;;;;;;;;;;4999622;28;20184;-76
2022/06/15 04:18:15;;;;;;;6.00;2.80;;;;;;;;;;5013247;28;20191;-76
2022/06/15 04:20:44;;;;;;;3.10;2.80;;;;;;;;;;5013637;28;20192;-76
2022/06/15 04:23:21;;;;;;;5.80;2.93;;;;;;;;;;5013827;28;20711;-76
2022/06/15 04:25:51;;;;;;;3.50;3.00;;;;;;;;;;5010085;28;20266;-76
2022/06/15 04:28:19;;;;;;;4.70;3.20;;;;;;;;;;4990433;28;20693;-75
2022/06/15 04:30:46;;;;;;;3.80;3.10;;;;;;;;;;5014780;28;20211;-76
2022/06/15 04:33:13;;;;;;;3.70;3.10;;;;;;;;;;5005419;28;20267;-76
2022/06/15 04:35:39;;;;;;;3.67;2.93;;;;;;;;;;4975100;28;20242;-76
2022/06/15 04:38:12;;;;;;;3.73;2.63;;;;;;;;;;5010777;28;20262;-76
2022/06/15 04:40:58;;;;;;;4.00;3.43;;;;;;;;;;4995310;28;20235;-74
2022/06/15 04:43:26;;;;;;;4.10;3.07;;;;;;;;;;4993570;28;20198;-76
2022/06/15 04:45:52;;;;;;;4.90;3.20;;;;;;;;;;5013087;28;20188;-75
2022/06/15 04:48:23;;;;;;;3.80;3.40;;;;;;;;;;5006824;28;20264;-75
2022/06/15 04:50:51;;;;;;;4.73;3.00;;;;;;;;;;5013333;28;20206;-76
2022/06/15 04:53:17;;;;;;;4.83;3.30;;;;;;;;;;5011410;28;20190;-78
2022/06/15 04:55:49;;;;;;;4.83;3.40;;;;;;;;;;5011167;28;20228;-76
2022/06/15 04:58:16;;;;;;;3.40;3.03;;;;;;;;;;4996302;28;20250;-75
2022/06/15 05:00:43;;;;;;;4.60;3.60;;;;;;;;;;4997896;28;20298;-78
2022/06/15 05:03:15;;;;;;;6.67;3.63;;;;;;;;;;5002457;28;20278;-77
2022/06/15 05:05:43;;;;;;;4.03;3.63;;;;;;;;;;5000876;28;20191;-75
2022/06/15 05:08:09;;;;;;;5.10;3.60;;;;;;;;;;4996835;28;20215;-76
2022/06/15 05:10:40;;;;;;;3.83;3.50;;;;;;;;;;4995584;28;20192;-76
2022/06/15 05:13:08;;;;;;;6.93;3.97;;;;;;;;;;4995544;28;20569;-77
2022/06/15 05:15:34;;;;;;;4.43;3.60;;;;;;;;;;5019113;28;20194;-76
2022/06/15 05:18:04;;;;;;;4.47;3.80;;;;;;;;;;5001584;28;20572;-76
2022/06/15 05:20:31;;;;;;;4.17;3.77;;;;;;;;;;5009008;28;20281;-76
2022/06/15 05:22:57;;;;;;;5.67;3.80;;;;;;;;;;5016630;28;20203;-77
2022/06/15 05:25:42;;;;;;;4.63;3.50;;;;;;;;;;5013887;28;20180;-76
2022/06/15 05:28:09;;;;;;;5.60;3.73;;;;;;;;;;4994902;28;20211;-77
2022/06/15 05:30:39;;;;;;;4.33;3.70;;;;;;;;;;4997402;28;20266;-77
2022/06/15 05:33:09;;;;;;;5.70;3.93;;;;;;;;;;4999636;28;20254;-77
2022/06/15 05:35:36;;;;;;;5.73;3.50;;;;;;;;;;5014939;28;20254;-76
2022/06/15 05:38:02;;;;;;;4.43;3.67;;;;;;;;;;5005889;28;20187;-76
2022/06/15 05:40:29;;;;;;;3.93;3.20;;;;;;;;;;5007345;28;20205;-78
2022/06/15 05:42:55;;;;;;;5.87;3.70;;;;;;;;;;4992461;28;20971;-78
2022/06/15 05:45:26;;;;;;;6.47;3.40;;;;;;;;;;4998179;28;20287;-76
2022/06/15 05:47:52;;;;;;;4.07;3.67;;;;;;;;;;5022772;28;20255;-74
2022/06/15 05:50:35;;;;;;;4.00;3.40;;;;;;;;;;4998300;28;20230;-76
2022/06/15 05:53:10;;;;;;;5.73;3.50;;;;;;;;;;4995284;28;20183;-76
2022/06/15 05:55:36;;;;;;;4.57;3.67;;;;;;;;;;4998960;28;20196;-76
2022/06/15 05:58:03;;;;;;;4.10;3.13;;;;;;;;;;5010057;28;20190;-75
2022/06/15 06:00:30;;;;;;;4.63;3.17;;;;;;;;;;4999183;28;20240;-76
2022/06/15 06:02:56;;;;;;;4.90;3.40;;;;;;;;;;5005010;28;20183;-76
2022/06/15 06:05:23;;;;;;;4.80;3.53;;;;;;;;;;4998555;28;20670;-76
2022/06/15 06:07:49;;;;;;;5.60;3.80;;;;;;;;;;4992597;28;20215;-75
2022/06/15 06:10:16;;;;;;;4.27;3.30;;;;;;;;;;4994861;28;20191;-76
2022/06/15 06:12:42;;;;;;;5.87;3.80;;;;;;;;;;4997496;28;20261;-76
2022/06/15 06:15:08;;;;;;;4.73;3.37;;;;;;;;;;4984001;28;20187;-75
2022/06/15 06:17:34;;;;;;;5.17;3.57;;;;;;;;;;4998427;28;20219;-76
2022/06/15 06:20:01;;;;;;;5.67;3.90;;;;;;;;;;5000735;28;20210;-76
2022/06/15 06:22:27;;;;;;;5.00;3.20;;;;;;;;;;4997644;28;20206;-76
2022/06/15 06:24:53;;;;;;;6.07;3.30;;;;;;;;;;5004695;28;20538;-76
2022/06/15 06:27:19;;;;;;;4.77;3.30;;;;;;;;;;5000498;28;20631;-74
2022/06/15 06:29:45;;;;;;;4.20;2.90;;;;;;;;;;5008921;28;20183;-76
2022/06/15 06:32:12;;;;;;;4.63;3.03;;;;;;;;;;5001701;28;20207;-75
2022/06/15 06:34:39;;;;;;;5.60;3.27;;;;;;;;;;5028766;28;20182;-76
2022/06/15 06:37:07;;;;;;;6.17;4.07;;;;;;;;;;5008095;28;20271;-75
2022/06/15 06:39:34;;;;;;;3.77;3.27;;;;;;;;;;5014338;28;20175;-76
2022/06/15 06:42:00;;;;;;;5.43;3.77;;;;;;;;;;5016820;28;20301;-76
2022/06/15 06:44:27;;;;;;;4.17;3.50;;;;;;;;;;5007291;28;20214;-76
2022/06/15 06:46:53;;;;;;;5.53;3.10;;;;;;;;;;5009184;28;20580;-76
2022/06/15 06:49:21;;;;;;;3.77;2.90;;;;;;;;;;4998979;28;20215;-76
2022/06/15 06:51:47;;;;;;;4.70;3.30;;;;;;;;;;4993401;28;20204;-75
2022/06/15 06:54:14;;;;;;;4.50;3.67;;;;;;;;;;5000724;28;20271;-76
2022/06/15 06:56:41;;;;;;;5.03;3.80;;;;;;;;;;5005716;28;20220;-75
2022/06/15 06:59:08;;;;;;;3.80;3.00;;;;;;;;;;5005479;28;20531;-76
2022/06/15 07:01:35;;;;;;;5.00;3.23;;;;;;;;;;4992019;28;20586;-76
2022/06/15 07:04:01;;;;;;;5.00;3.50;;;;;;;;;;5000395;28;20187;-75
2022/06/15 07:06:27;;;;;;;3.73;3.30;;;;;;;;;;4997535;28;20172;-74
2022/06/15 07:08:53;;;;;;;5.03;3.60;;;;;;;;;;4994422;28;20216;-76
2022/06/15 07:11:19;;;;;;;4.90;3.27;;;;;;;;;;5017936;28;20227;-76
2022/06/15 07:13:46;;;;;;;7.77;4.10;;;;;;;;;;5019699;28;20184;-76
2022/06/15 07:16:14;;;;;;;4.40;3.67;;;;;;;;;;4996044;28;20282;-76
2022/06/15 07:18:40;;;;;;;5.37;3.40;;;;;;;;;;4990016;28;20223;-76
2022/06/15 07:21:07;;;;;;;5.00;3.30;;;;;;;;;;5008241;28;20223;-76
2022/06/15 07:23:34;;;;;;;5.10;3.00;;;;;;;;;;5005434;28;20219;-76
2022/06/15 07:26:04;;;;;;;4.47;3.17;;;;;;;;;;5002662;28;20656;-76
2022/06/15 07:28:31;;;;;;;7.37;3.60;;;;;;;;;;4992287;28;20242;-76
2022/06/15 07:30:57;;;;;;;5.77;3.47;;;;;;;;;;4997936;28;20283;-76
2022/06/15 07:33:23;;;;;;;4.93;3.47;;;;;;;;;;4991388;28;20728;-76
2022/06/15 07:35:49;;;;;;;4.40;3.40;;;;;;;;;;4995977;28;20180;-76
2022/06/15 07:38:16;;;;;;;3.87;3.00;;;;;;;;;;5001784;28;20314;-76
2022/06/15 07:40:42;;;;;;;6.87;3.27;;;;;;;;;;5000897;28;20179;-76
2022/06/15 07:43:08;;;;;;;4.87;3.57;;;;;;;;;;4991818;28;20673;-75
2022/06/15 07:45:34;;;;;;;6.00;3.50;;;;;;;;;;4993909;28;20184;-75
2022/06/15 07:50:45;;;;;;;7.93;3.50;;;;;;;;;;5000334;28;20234;-76
2022/06/15 07:53:13;;;;;;;5.87;3.50;;;;;;;;;;4993890;28;20184;-76
2022/06/15 07:55:42;;;;;;;8.13;3.60;;;;;;;;;;4999845;28;20183;-76
2022/06/15 07:58:09;;;;;;;4.60;3.60;;;;;;;;;;4995900;28;20188;-75
2022/06/15 08:00:36;;;;;;;3.40;2.97;;;;;;;;;;4995233;28;20192;-76
2022/06/15 08:03:03;;;;;;;4.53;3.10;;;;;;;;;;4993883;28;20203;-77
2022/06/15 08:05:31;;;;;;;5.07;3.40;;;;;;;;;;5002053;28;20274;-76
2022/06/15 08:07:57;;;;;;;5.23;3.13;;;;;;;;;;4996821;28;20902;-76
2022/06/15 08:10:25;;;;;;;6.33;3.50;;;;;;;;;;4995318;28;20183;-77
2022/06/15 08:12:51;;;;;;;5.37;3.40;;;;;;;;;;4995379;28;20382;-75
2022/06/15 08:15:18;;;;;;;5.40;3.70;;;;;;;;;;4995870;28;20187;-74
2022/06/15 08:17:52;;;;;;;5.90;3.50;;;;;;;;;;5005345;28;20192;-77
2022/06/15 08:20:30;;;;;;;5.37;3.50;;;;;;;;;;5002447;28;20217;-76
2022/06/15 08:22:58;;;;;;;4.03;3.03;;;;;;;;;;4998625;28;20189;-76
2022/06/15 08:25:26;;;;;;;3.63;3.07;;;;;;;;;;4990101;28;20192;-76
2022/06/15 08:27:53;;;;;;;3.60;3.30;;;;;;;;;;4998724;28;20208;-75
2022/06/15 08:30:19;;;;;;;4.47;3.43;;;;;;;;;;5002653;28;20190;-76
2022/06/15 08:32:46;;;;;;;5.47;3.40;;;;;;;;;;4996903;28;20849;-76
2022/06/15 08:35:12;;;;;;;4.93;3.27;;;;;;;;;;4992071;28;20270;-75
2022/06/15 08:37:39;;;;;;;8.67;3.60;;;;;;;;;;4995336;28;20331;-76
2022/06/15 08:40:05;;;;;;;3.70;3.17;;;;;;;;;;5013380;28;20187;-76
2022/06/15 08:42:39;;;;;;;5.57;3.27;;;;;;;;;;4996868;28;20566;-76
2022/06/15 08:45:09;;;;;;;8.00;4.17;;;;;;;;;;4997314;28;20186;-77
2022/06/15 08:47:37;;;;;;;4.63;3.40;;;;;;;;;;4996091;28;20681;-76
2022/06/15 08:50:12;;;;;;;4.93;3.67;;;;;;;;;;5023712;28;20284;-76
2022/06/15 08:52:41;;;;;;;5.47;3.40;;;;;;;;;;4997698;28;20652;-77
2022/06/15 08:55:07;;;;;;;3.60;3.30;;;;;;;;;;4985741;28;20633;-76
2022/06/15 08:57:42;;;;;;;4.67;3.40;;;;;;;;;;4995801;28;20192;-75
2022/06/15 09:00:15;;;;;;;9.13;3.80;;;;;;;;;;4996732;28;20182;-76
2022/06/15 09:02:47;;;;;;;5.60;3.43;;;;;;;;;;5004625;28;20278;-76
2022/06/15 09:05:19;;;;;;;10.17;3.97;;;;;;;;;;5000977;28;20278;-76
2022/06/15 09:08:23;;;;;;;6.67;3.80;;;;;;;;;;4998295;28;20249;-75
2022/06/15 09:10:51;;;;;;;7.20;3.70;;;;;;;;;;4967210;28;20215;-76
2022/06/15 09:13:36;;;;;;;4.00;3.60;;;;;;;;;;4986610;28;20212;-76
2022/06/15 09:16:21;;;;;;;6.70;3.90;;;;;;;;;;4996093;28;20296;-76
2022/06/15 09:18:49;;;;;;;5.23;3.57;;;;;;;;;;4995548;28;20562;-77
2022/06/15 09:21:15;;;;;;;4.13;3.27;;;;;;;;;;4997916;28;20203;-76
2022/06/15 09:23:41;;;;;;;5.47;3.30;;;;;;;;;;5000173;28;20196;-76
2022/06/15 09:26:13;;;;;;;5.10;2.97;;;;;;;;;;4999806;28;20654;-76
2022/06/15 09:28:45;;;;;;;4.13;3.03;;;;;;;;;;4994503;28;20213;-77
2022/06/15 09:31:16;;;;;;;3.57;3.10;;;;;;;;;;4995380;28;20206;-76
2022/06/15 09:33:48;;;;;;;4.30;3.50;;;;;;;;;;4995250;28;20200;-75
2022/06/15 09:36:19;;;;;;;4.63;3.00;;;;;;;;;;5005281;28;20188;-76
2022/06/15 09:38:45;;;;;;;5.30;3.40;;;;;;;;;;5004058;28;20261;-77
2022/06/15 09:41:25;;;;;;;4.97;3.40;;;;;;;;;;5003442;28;20697;-77
2022/06/15 09:43:51;;;;;;;4.80;3.50;;;;;;;;;;4996659;28;20596;-76
2022/06/15 09:46:28;;;;;;;3.70;3.23;;;;;;;;;;4998489;28;20215;-76
2022/06/15 09:48:54;;;;;;;5.37;3.23;;;;;;;;;;4995369;28;20211;-76
2022/06/15 09:51:39;;;;;;;4.77;3.43;;;;;;;;;;5009269;28;20695;-77
2022/06/15 09:54:18;;;;;;;4.67;3.50;;;;;;;;;;4990031;28;20180;-77
2022/06/15 09:56:45;;;;;;;5.20;3.50;;;;;;;;;;4998572;28;20188;-77
2022/06/15 09:59:12;;;;;;;4.90;3.60;;;;;;;;;;4994065;28;20569;-75
2022/06/15 10:01:41;;;;;;;4.17;3.50;;;;;;;;;;4992628;28;20795;-76
2022/06/15 10:04:14;;;;;;;3.80;3.23;;;;;;;;;;5020749;28;20195;-76
2022/06/15 10:06:45;;;;;;;4.17;3.40;;;;;;;;;;4998313;28;20206;-77
2022/06/15 10:09:15;;;;;;;5.13;3.10;;;;;;;;;;4988675;28;20209;-75
2022/06/15 10:11:45;;;;;;;3.90;3.50;;;;;;;;;;4993327;28;20228;-76
2022/06/15 10:14:23;;;;;;;4.20;3.30;;;;;;;;;;4987971;28;20207;-76
2022/06/15 10:17:09;;;;;;;6.27;3.60;;;;;;;;;;4995817;28;20198;-76
2022/06/15 10:19:35;;;;;;;6.23;3.20;;;;;;;;;;4996369;28;20207;-76
2022/06/15 10:22:04;;;;;;;3.53;3.10;;;;;;;;;;4992599;28;20235;-76
2022/06/15 10:24:42;;;;;;;3.53;3.07;;;;;;;;;;4993504;28;20206;-77
2022/06/15 10:27:28;;;;;;;5.10;3.17;;;;;;;;;;4993096;28;20174;-77
2022/06/15 10:30:04;;;;;;;4.83;3.30;;;;;;;;;;4994769;28;20190;-77
2022/06/15 10:32:31;;;;;;;7.60;3.90;;;;;;;;;;4994439;28;20207;-76
2022/06/15 10:35:08;;;;;;;5.23;3.40;;;;;;;;;;4992706;28;20629;-77
2022/06/15 10:37:36;;;;;;;5.77;2.97;;;;;;;;;;4992843;28;20179;-77
2022/06/15 10:40:04;;;;;;;6.53;3.37;;;;;;;;;;4992597;28;20213;-78
2022/06/15 10:42:34;;;;;;;7.40;3.40;;;;;;;;;;4990772;28;20235;-77
2022/06/15 10:45:02;;;;;;;5.13;3.27;;;;;;;;;;4995035;28;20222;-78
2022/06/15 10:47:33;;;;;;;3.57;2.97;;;;;;;;;;4991697;28;20264;-77
2022/06/15 10:50:01;;;;;;;5.67;3.30;;;;;;;;;;4992348;28;20199;-77
2022/06/15 10:52:35;;;;;;;3.20;2.90;;;;;;;;;;4993513;28;20204;-80
2022/06/15 11:04:22;;;;;;;3.73;3.33;;;;;;;;;;4986979;28;20302;-77
2022/06/15 11:07:09;;;;;;;4.13;3.40;;;;;;;;;;4987239;28;20544;-78
2022/06/15 11:10:02;;;;;;;4.37;3.53;;;;;;;;;;4995734;28;20175;-75
2022/06/15 11:12:48;;;;;;;4.77;2.83;;;;;;;;;;4999537;28;20211;-77
2022/06/15 11:15:15;;;;;;;5.57;3.13;;;;;;;;;;4990361;28;20218;-77
2022/06/15 11:18:01;;;;;;;3.97;3.00;;;;;;;;;;4991498;28;20196;-78
2022/06/15 11:20:45;;;;;;;4.83;3.33;;;;;;;;;;5001749;28;20649;-75
2022/06/15 11:23:17;;;;;;;4.23;3.07;;;;;;;;;;4991529;28;20239;-76
2022/06/15 11:25:46;;;;;;;3.40;3.10;;;;;;;;;;4990841;28;20181;-76
2022/06/15 11:28:16;;;;;;;3.10;2.77;;;;;;;;;;4991602;28;20253;-76
2022/06/15 11:31:00;;;;;;;3.33;2.60;;;;;;;;;;4998375;28;20274;-77
2022/06/15 11:33:34;;;;;;;4.17;2.90;;;;;;;;;;4989988;28;20604;-76
2022/06/15 11:36:03;;;;;;;3.20;2.90;;;;;;;;;;4991003;28;20204;-76
2022/06/15 11:38:41;;;;;;;3.13;2.60;;;;;;;;;;4988699;28;20369;-76
2022/06/15 11:41:07;;;;;;;3.00;2.43;;;;;;;;;;5013246;28;20212;-77
2022/06/15 11:43:38;;;;;;;4.23;2.80;;;;;;;;;;5024046;28;20186;-82
2022/06/15 11:46:09;;;;;;;3.10;2.80;;;;;;;;;;5022698;28;20259;-78
2022/06/15 11:48:41;;;;;;;4.33;2.93;;;;;;;;;;5005662;28;20203;-78
2022/06/15 11:51:26;;;;;;;3.20;2.90;;;;;;;;;;4994993;28;20276;-77
2022/06/15 11:54:11;;;;;;;6.70;3.03;;;;;;;;;;4997000;28;20215;-79
2022/06/15 11:56:49;;;;;;;4.10;2.77;;;;;;;;;;5000416;28;20221;-78
2022/06/15 11:59:23;;;;;;;3.17;2.83;;;;;;;;;;5002905;28;20185;-78
2022/06/15 12:01:50;;;;;;;4.47;2.90;;;;;;;;;;5003047;28;20288;-78
2022/06/15 12:04:16;;;;;;;3.50;2.60;;;;;;;;;;5003052;28;20198;-79
2022/06/15 12:06:45;;;;;;;3.00;2.73;;;;;;;;;;5007144;28;20676;-79
2022/06/15 12:09:18;;;;;;;6.50;2.57;;;;;;;;;;4997253;28;20726;-77
2022/06/15 12:14:30;;;;;;;5.03;2.90;;;;;;;;;;4999705;28;20214;-79
2022/06/15 12:17:01;;;;;;;5.23;2.77;;;;;;;;;;4999005;28;20216;-78
2022/06/15 12:19:47;;;;;;;3.67;2.90;;;;;;;;;;5008760;28;20273;-79
2022/06/15 12:22:17;;;;;;;3.13;2.60;;;;;;;;;;4962428;28;20942;-79
2022/06/15 12:24:49;;;;;;;4.20;2.70;;;;;;;;;;4996105;28;20650;-79
2022/06/15 12:27:21;;;;;;;4.90;2.97;;;;;;;;;;4991001;28;20189;-79
2022/06/15 12:29:51;;;;;;;3.33;2.40;;;;;;;;;;4993581;28;20181;-79
2022/06/15 12:32:36;;;;;;;2.57;2.37;;;;;;;;;;4998521;28;20765;-79
2022/06/15 12:35:21;;;;;;;3.13;2.37;;;;;;;;;;5014288;28;20190;-79
2022/06/15 12:37:47;;;;;;;2.43;2.00;;;;;;;;;;4998883;28;20181;-79
2022/06/15 12:40:23;;;;;;;3.00;2.33;;;;;;;;;;4997758;28;20211;-79
2022/06/15 12:42:51;;;;;;;2.63;2.30;;;;;;;;;;5012318;28;20210;-80
2022/06/15 12:45:26;;;;;;;3.70;2.50;;;;;;;;;;4995035;28;20263;-79
2022/06/15 12:47:57;;;;;;;2.80;2.30;;;;;;;;;;4990488;28;20738;-80
2022/06/15 12:50:35;;;;;;;3.07;2.30;;;;;;;;;;4993483;28;20186;-79
2022/06/15 12:53:04;;;;;;;2.63;2.30;;;;;;;;;;4998061;28;20183;-79
2022/06/15 12:55:38;;;;;;;2.93;2.30;;;;;;;;;;4989731;28;20203;-79
2022/06/15 12:58:04;;;;;;;4.63;2.27;;;;;;;;;;4997908;28;20245;-80
2022/06/15 13:00:44;;;;;;;3.22;2.10;;;;;;;;;;5011480;28;20201;-80
2022/06/15 13:03:13;;;;;;;4.40;2.20;;;;;;;;;;5002148;28;20272;-80
2022/06/15 13:05:40;;;;;;;2.28;2.08;;;;;;;;;;5009601;28;20191;-80
2022/06/15 13:08:19;;;;;;;2.97;2.15;;;;;;;;;;4990042;28;20668;-79
2022/06/15 13:10:51;;;;;;;2.92;2.20;;;;;;;;;;4999324;28;20182;-79
2022/06/15 13:13:26;;;;;;;3.03;2.03;;;;;;;;;;5001144;28;20187;-79
2022/06/15 13:16:02;;;;;;;2.15;1.98;;;;;;;;;;5000078;28;20219;-79
2022/06/15 13:18:46;;;;;;;4.43;2.20;;;;;;;;;;4997849;28;20190;-79
2022/06/15 13:21:13;;;;;;;2.55;2.28;;;;;;;;;;4995021;28;20213;-78
2022/06/15 13:23:41;;;;;;;2.33;2.10;;;;;;;;;;4995460;28;20186;-81
2022/06/15 13:26:20;;;;;;;4.32;2.42;;;;;;;;;;4992389;28;20183;-80
2022/06/15 13:29:06;;;;;;;2.28;2.13;;;;;;;;;;5000480;28;20845;-80
2022/06/15 13:31:43;;;;;;;5.53;2.58;;;;;;;;;;5013246;28;20206;-80
2022/06/15 13:34:10;;;;;;;4.68;2.53;;;;;;;;;;4995730;28;20215;-80
2022/06/15 13:36:37;;;;;;;2.97;2.58;;;;;;;;;;4999977;28;20296;-80
2022/06/15 13:39:22;;;;;;;6.93;2.60;;;;;;;;;;4999028;28;20258;-80
2022/06/15 13:42:08;;;;;;;2.97;2.65;;;;;;;;;;5000462;28;20716;-80
2022/06/15 13:44:48;;;;;;;3.78;2.60;;;;;;;;;;4997164;28;20187;-80
2022/06/15 13:47:14;;;;;;;2.70;2.50;;;;;;;;;;5004210;28;20293;-81
2022/06/15 13:49:42;;;;;;;3.40;2.30;;;;;;;;;;4995432;28;20194;-80
2022/06/15 13:52:09;;;;;;;2.30;2.10;;;;;;;;;;5000336;28;20213;-80
2022/06/15 13:54:38;;;;;;;2.33;2.13;;;;;;;;;;4996296;28;20201;-79
2022/06/15 13:57:23;;;;;;;2.63;2.22;;;;;;;;;;5003064;28;20207;-80
2022/06/15 13:59:58;;;;;;;3.38;2.20;;;;;;;;;;5014237;28;20183;-80
2022/06/15 14:02:46;;;;;;;2.70;2.30;;;;;;;;;;5007759;28;20199;-80
2022/06/15 14:05:27;;;;;;;5.53;2.72;;;;;;;;;;4999071;28;20549;-80
2022/06/15 14:08:03;;;;;;;2.95;2.38;;;;;;;;;;5000819;28;20222;-80
2022/06/15 14:10:41;;;;;;;2.65;2.40;;;;;;;;;;5004725;28;20706;-80
2022/06/15 14:13:08;;;;;;;4.18;2.30;;;;;;;;;;5003551;28;20207;-80
2022/06/15 14:15:39;;;;;;;3.67;2.42;;;;;;;;;;5000131;28;20934;-80
2022/06/15 14:18:09;;;;;;;2.53;2.33;;;;;;;;;;5022073;28;20215;-81
2022/06/15 14:20:45;;;;;;;4.07;2.35;;;;;;;;;;5006628;28;20228;-81
2022/06/15 14:23:12;;;;;;;3.42;2.50;;;;;;;;;;4993982;28;20186;-80
2022/06/15 14:25:43;;;;;;;5.30;2.70;;;;;;;;;;5002063;28;20239;-81
2022/06/15 14:28:11;;;;;;;4.38;2.45;;;;;;;;;;4998830;28;20203;-80
2022/06/15 14:30:39;;;;;;;5.10;2.97;;;;;;;;;;5002859;28;20182;-81
2022/06/15 14:33:16;;;;;;;2.80;2.60;;;;;;;;;;4998327;28;20214;-79
2022/06/15 14:35:42;;;;;;;3.47;2.70;;;;;;;;;;5004974;28;20551;-79
2022/06/15 14:38:14;;;;;;;3.10;2.78;;;;;;;;;;4999808;28;20184;-81
2022/06/15 14:40:43;;;;;;;4.88;2.70;;;;;;;;;;5001946;28;20191;-81
2022/06/15 14:43:10;;;;;;;2.60;2.40;;;;;;;;;;5002837;28;20187;-81
2022/06/15 14:45:47;;;;;;;4.35;2.75;;;;;;;;;;4997983;28;20653;-80
2022/06/15 14:48:29;;;;;;;4.43;2.75;;;;;;;;;;4998623;28;20250;-78
2022/06/15 14:51:05;;;;;;;7.20;2.75;;;;;;;;;;4998698;28;20267;-77
2022/06/15 14:53:31;;;;;;;3.22;2.60;;;;;;;;;;4991979;28;20654;-78
2022/06/15 14:56:05;;;;;;;8.15;2.53;;;;;;;;;;5016154;28;20559;-79
2022/06/15 14:58:31;;;;;;;4.05;2.60;;;;;;;;;;4992666;28;20183;-79
2022/06/15 15:01:10;;;;;;;4.38;3.03;;;;;;;;;;4994625;28;20413;-78
2022/06/15 15:03:37;;;;;;;2.92;2.50;;;;;;;;;;5010553;28;20187;-79
2022/06/15 15:06:08;;;;;;;3.40;2.80;;;;;;;;;;4992375;28;20200;-79
2022/06/15 15:08:34;;;;;;;3.72;2.70;;;;;;;;;;4993835;28;20276;-79
2022/06/15 15:11:02;;;;;;;3.10;2.65;;;;;;;;;;4993721;28;20262;-79
2022/06/15 15:13:34;;;;;;;3.83;2.50;;;;;;;;;;5005900;28;20532;-79
2022/06/15 15:16:06;;;;;;;5.18;2.47;;;;;;;;;;5003711;28;20200;-78
2022/06/15 15:18:39;;;;;;;3.85;2.92;;;;;;;;;;4996419;28;20605;-79
2022/06/15 15:21:37;;;;;;;3.28;2.30;;;;;;;;;;5003938;28;20681;-78
2022/06/15 15:24:15;;;;;;;6.00;2.67;;;;;;;;;;4981422;28;20214;-78